• Join FlightAware (Why Join?)
  • Login
  • US Flag 
04:44PM EDT


 

Airport Tracker/Info


-or-


 

Live Flight TrackerFlight Track Log ✈ N3746H ✈ 25-Apr-2013 ✈ MDSD / SDQ - KJFK

Flight Track Log - Related Links

Times and Time Zones

All times are in EDT time to prevent confusion due to time zone crossing. See the N3746H flight status page for this flight to view local times or setup timezone preferences in your user account.

Time Position Orientation Groundspeed Altitude Reporting Facility
EDT Latitude Longitude Course Direction KTS MPH feet Rate Location/Type
02:28PM 19.1039 -69.8675 342° North 473 544 19,200  Level Miami Center
02:29PM 19.2178 -69.9058 344° North 447 514 20,700 1,500 Climbing Miami Center
02:30PM 19.3303 -69.9550 338° Northwest 436 502 22,300 1,500 Climbing Miami Center
02:31PM 19.4428 -70.0022 338° Northwest 436 502 23,800 1,320 Climbing Miami Center
02:32PM 19.5614 -70.0492 340° North 441 507 25,000 1,500 Climbing Miami Center
02:33PM 19.6778 -70.0942 340° North 446 513 26,900 1,560 Climbing Miami Center
02:34PM 19.7897 -70.1350 341° North 438 504 28,200 1,140 Climbing Miami Center
02:35PM 19.9064 -70.1800 340° North 432 497 29,200 1,080 Climbing Miami Center
02:36PM 20.0186 -70.2297 337° Northwest 438 504 30,400 1,260 Climbing Miami Center
02:37PM 20.1350 -70.2706 342° North 438 504 31,800 1,200 Climbing Miami Center
02:38PM 20.2472 -70.3158 339° North 438 504 32,900 1,020 Climbing Miami Center
02:39PM 20.3653 -70.3458 347° North 438 504 33,900 900 Climbing Miami Center
02:40PM 20.4858 -70.3400 North 420 483 34,800 60 Climbing Miami Center
02:41PM 20.6067 -70.3386 North 430 495 34,100 -420 Descending Miami Center
02:42PM 20.7264 -70.3597 351° North 430 495 34,000 -60 Descending Miami Center
02:43PM 20.8453 -70.3650 358° North 430 495 34,000  Level Miami Center
02:44PM 20.9658 -70.3547 North 425 489 34,000  Level Miami Center
02:45PM 21.0903 -70.3444 North 425 489 34,000  Level Miami Center
02:46PM 21.2089 -70.3342 North 431 496 34,000  Level Miami Center
02:47PM 21.3314 -70.3239 North 431 496 34,000  Level Miami Center
02:48PM 21.4519 -70.3158 North 431 496 34,000  Level Miami Center
02:49PM 21.5744 -70.3056 North 436 502 34,000  Level Miami Center
02:50PM 21.6869 -70.3000 North 443 510 34,000  Level Miami Center
02:51PM 21.8075 -70.2917 North 443 510 34,000  Level Miami Center
02:52PM 21.9278 -70.2814 North 438 504 34,000  Level Miami Center
02:53PM 22.0483 -70.2708 North 438 504 34,000  Level Miami Center
02:54PM 22.1689 -70.2625 North 438 504 34,000  Level Miami Center
02:55PM 22.2897 -70.2542 North 438 504 34,000  Level Miami Center
02:56PM 22.4039 -70.2442 North 428 493 34,000  Level Miami Center
02:57PM 22.5244 -70.2358 North 428 493 34,000  Level Miami Center
02:58PM 22.6431 -70.2275 North 422 486 34,000  Level Miami Center
02:59PM 22.7636 -70.2214 North 422 486 34,000  Level Miami Center
03:00PM 22.8822 -70.2106 North 422 486 34,000  Level Miami Center
03:01PM 22.9986 -70.2003 North 422 486 34,000  Level Miami Center
03:02PM 23.1192 -70.1939 North 422 486 34,000  Level Miami Center
03:03PM 23.2397 -70.1831 North 422 486 34,000  Level Miami Center
03:04PM 23.3606 -70.1769 North 422 486 34,000  Level Miami Center
03:05PM 23.4767 -70.1664 North 422 486 34,000  Level Miami Center
03:06PM 23.5950 -70.1508 North 422 486 34,000  Level Miami Center
03:07PM 23.7136 -70.1447 North 422 486 34,000  Level Miami Center
03:08PM 23.8344 -70.1383 North 422 486 34,000  Level Miami Center
03:09PM 23.9633 -70.1292 North 422 486 34,000  Level Miami Center
03:10PM 24.0839 -70.1203 North 422 486 34,000  Level Miami Center
03:11PM 24.2022 -70.1050 North 422 486 34,000  Level Miami Center
03:12PM 24.3228 -70.0961 North 422 486 34,000  Level Miami Center
03:13PM 24.4414 -70.0897 North 422 486 34,000  Level Miami Center
03:14PM 24.5619 -70.0808 North 422 486 34,000  Level Miami Center
03:16PM 24.6939 -70.0704 North  Level FlightAware Approximate
03:16PM 24.8014 -70.0653 North 422 486 34,000  Level Miami Center
03:17PM 24.9197 -70.0519 North 422 486 34,000  Level Miami Center
03:18PM 25.0406 -70.0519 360° North 422 486 34,000  Level Miami Center
03:19PM 25.0000 -70.0500 348° North 433 498 34,000  Level New York Oceanic (ODAPS)
03:26PM 25.9460 -70.2704 348° North 433 498 34,000  Level FlightAware Transoceanic
03:27PM 26.0642 -70.2982 348° North 433 498 34,000  Level FlightAware Transoceanic
03:28PM 26.1825 -70.3261 348° North 433 498 34,000  Level FlightAware Transoceanic
03:29PM 26.3007 -70.3540 348° North 433 498 34,000  Level FlightAware Transoceanic
03:30PM 26.4189 -70.3820 348° North 433 498 34,000  Level FlightAware Transoceanic
03:31PM 26.5371 -70.4100 348° North 433 498 34,000  Level FlightAware Transoceanic
03:32PM 26.6553 -70.4381 348° North 433 498 34,000  Level FlightAware Transoceanic
03:33PM 26.7735 -70.4663 348° North 433 498 34,000  Level FlightAware Transoceanic
03:34PM 26.8917 -70.4945 348° North 433 498 34,000  Level FlightAware Transoceanic
03:35PM 27.0099 -70.5227 348° North 433 498 34,000  Level FlightAware Transoceanic
03:36PM 27.1280 -70.5510 348° North 433 498 34,000  Level FlightAware Transoceanic
03:37PM 27.2462 -70.5794 348° North 433 498 34,000  Level FlightAware Transoceanic
03:38PM 27.3644 -70.6079 348° North 433 498 34,000  Level FlightAware Transoceanic
03:39PM 27.4825 -70.6364 348° North 433 498 34,000  Level FlightAware Transoceanic
03:40PM 27.6007 -70.6649 348° North 433 498 34,000  Level FlightAware Transoceanic
03:41PM 27.7188 -70.6936 348° North 433 498 34,000  Level FlightAware Transoceanic
03:42PM 27.8370 -70.7223 348° North 433 498 34,000  Level FlightAware Transoceanic
03:43PM 27.9551 -70.7510 348° North 433 498 34,000  Level FlightAware Transoceanic
03:44PM 28.0732 -70.7798 348° North 433 498 34,000  Level FlightAware Transoceanic
03:45PM 28.1914 -70.8087 348° North 433 498 34,000  Level FlightAware Transoceanic
03:46PM 28.3095 -70.8376 348° North 433 498 34,000  Level FlightAware Transoceanic
03:47PM 28.4276 -70.8667 348° North 433 498 34,000  Level FlightAware Transoceanic
03:48PM 28.5457 -70.8957 348° North 433 498 34,000  Level FlightAware Transoceanic
03:49PM 28.6638 -70.9249 348° North 433 498 34,000  Level FlightAware Transoceanic
03:50PM 28.7819 -70.9541 348° North 433 498 34,000  Level FlightAware Transoceanic
03:51PM 28.9000 -70.9833 348° North 433 498 34,000  Level FlightAware Transoceanic
03:52PM 29.0184 -71.0124 348° North 433 498 34,000  Level FlightAware Transoceanic
03:52PM 28.9000 -70.9833 348° North 424 488 34,000  Level New York Oceanic (ODAPS)
03:53PM 29.1367 -71.0415 348° North 433 498 34,000  Level FlightAware Transoceanic
03:54PM 29.2551 -71.0707 348° North 433 498 34,000  Level FlightAware Transoceanic
03:55PM 29.3734 -71.1000 348° North 433 498 34,000  Level FlightAware Transoceanic
03:56PM 29.4918 -71.1294 348° North 433 498 34,000  Level FlightAware Transoceanic
03:57PM 29.6101 -71.1588 348° North 433 498 34,000  Level FlightAware Transoceanic
03:58PM 29.7096 -71.1836 348° North 424 488 34,000  Level FlightAware Transoceanic
03:59PM 29.8252 -71.2124 348° North 424 488 34,000  Level FlightAware Transoceanic
04:00PM 29.9408 -71.2414 348° North 424 488 34,000  Level FlightAware Transoceanic
04:01PM 30.0564 -71.2704 348° North 424 488 34,000  Level FlightAware Transoceanic
04:02PM 30.1721 -71.2994 348° North 424 488 34,000  Level FlightAware Transoceanic
04:03PM 30.2877 -71.3286 348° North 424 488 34,000  Level FlightAware Transoceanic
04:04PM 30.4033 -71.3578 348° North 424 488 34,000  Level FlightAware Transoceanic
04:05PM 30.5189 -71.3870 348° North 424 488 34,000  Level FlightAware Transoceanic
04:06PM 30.6344 -71.4164 348° North 424 488 34,000  Level FlightAware Transoceanic
04:07PM 30.7500 -71.4458 348° North 424 488 34,000  Level FlightAware Transoceanic
04:08PM 30.8656 -71.4753 348° North 424 488 34,000  Level FlightAware Transoceanic
04:09PM 30.9812 -71.5049 348° North 424 488 34,000  Level FlightAware Transoceanic
04:10PM 31.0967 -71.5345 348° North 424 488 34,000  Level FlightAware Transoceanic
04:11PM 31.2123 -71.5642 348° North 424 488 34,000  Level FlightAware Transoceanic
04:12PM 31.3278 -71.5939 348° North 424 488 34,000  Level FlightAware Transoceanic
04:13PM 31.4433 -71.6238 348° North 424 488 34,000  Level FlightAware Transoceanic
04:14PM 31.5589 -71.6537 348° North 424 488 34,000  Level FlightAware Transoceanic
04:15PM 31.6744 -71.6837 348° North 424 488 34,000  Level FlightAware Transoceanic
04:16PM 31.7899 -71.7138 348° North 424 488 34,000  Level FlightAware Transoceanic
04:17PM 31.9054 -71.7439 347° North 424 488 34,000  Level FlightAware Transoceanic
04:18PM 32.0209 -71.7741 347° North 424 488 34,000  Level FlightAware Transoceanic
04:19PM 32.1364 -71.8044 347° North 424 488 34,000  Level FlightAware Transoceanic
04:20PM 32.2519 -71.8348 347° North 424 488 34,000  Level FlightAware Transoceanic
04:21PM 32.3674 -71.8653 347° North 424 488 34,000  Level FlightAware Transoceanic
04:22PM 32.4829 -71.8958 347° North 424 488 34,000  Level FlightAware Transoceanic
04:23PM 32.5983 -71.9264 347° North 424 488 34,000  Level FlightAware Transoceanic
04:24PM 32.7138 -71.9571 347° North 424 488 34,000  Level FlightAware Transoceanic
04:25PM 32.8293 -71.9878 347° North 424 488 34,000  Level FlightAware Transoceanic
04:26PM 32.9447 -72.0187 347° North 424 488 34,000  Level FlightAware Transoceanic
04:27PM 33.0601 -72.0496 347° North 424 488 34,000  Level FlightAware Transoceanic
04:28PM 33.1755 -72.0806 347° North 424 488 34,000  Level FlightAware Transoceanic
04:29PM 33.2910 -72.1117 347° North 424 488 34,000  Level FlightAware Transoceanic
04:30PM 33.4064 -72.1429 347° North 424 488 34,000  Level FlightAware Transoceanic
04:31PM 33.5218 -72.1741 347° North 424 488 34,000  Level FlightAware Transoceanic
04:32PM 33.6372 -72.2055 347° North 424 488 34,000  Level FlightAware Transoceanic
04:33PM 33.7526 -72.2369 347° North 424 488 34,000  Level FlightAware Transoceanic
04:34PM 33.8680 -72.2684 347° North 424 488 34,000  Level FlightAware Transoceanic
04:35PM 33.9833 -72.3000 355° North 424 488 34,000  Level FlightAware Transoceanic
04:36PM 34.1019 -72.3128 355° North 424 488 34,000  Level FlightAware Transoceanic
04:37PM 34.2204 -72.3257 355° North 424 488 34,000  Level FlightAware Transoceanic
04:37PM 34.2308 -72.2939 355° North 457 526 34,000  Level New York Center
04:38PM 34.3389 -72.3386 355° North 424 488 34,000  Level FlightAware Transoceanic
04:38PM 34.3581 -72.3014 357° North 457 526 34,000  Level New York Center
04:39PM 34.4574 -72.3515 355° North 424 488 34,000  Level FlightAware Transoceanic
04:39PM 34.4831 -72.3039 359° North 457 526 34,000  Level New York Center
04:40PM 34.5759 -72.3644 355° North 424 488 34,000  Level FlightAware Transoceanic
04:40PM 34.6083 -72.3064 359° North 457 526 34,000  Level New York Center
04:41PM 34.6945 -72.3774 355° North 424 488 34,000  Level FlightAware Transoceanic
04:41PM 34.7333 -72.3089 359° North 457 526 34,000  Level New York Center
04:42PM 34.8130 -72.3905 355° North 424 488 34,000  Level FlightAware Transoceanic
04:42PM 34.7825 -72.3678 315° West 457 526 34,000  Level New York Center
04:43PM 34.9315 -72.4035 355° North 424 488 34,000  Level FlightAware Transoceanic
04:43PM 34.9639 -72.3844 356° North 493 567 34,000  Level New York Center
04:44PM 35.0867 -72.4022 353° North 466 536 34,000  Level New York Center
04:45PM 35.2117 -72.4122 356° North 449 517 34,000  Level New York Center
04:46PM 35.3389 -72.4100 North 442 509 34,000  Level New York Center
04:47PM 35.4664 -72.4075 North 442 509 34,000  Level New York Center
04:48PM 35.5914 -72.4078 360° North 450 518 34,000  Level New York Center
04:49PM 35.7208 -72.4056 North 450 518 34,000  Level New York Center
04:50PM 35.8439 -72.4056 360° North 450 518 34,000  Level New York Center
04:51PM 35.9775 -72.4006 North 462 532 34,000  Level New York Center
04:52PM 36.1069 -72.4008 360° North 462 532 34,000  Level New York Center
04:53PM 36.2300 -72.3983 North 455 524 34,000  Level New York Center
04:54PM 36.3550 -72.4011 359° North 450 518 34,000  Level New York Center
04:55PM 36.4844 -72.3989 North 457 526 34,000  Level New York Center
04:56PM 36.6242 -72.3967 North 465 535 34,000  Level New York Center
04:57PM 36.7517 -72.3969 360° North 465 535 34,000  Level New York Center
04:58PM 36.8853 -72.3789 North 471 542 34,000  Level New York Center
04:59PM 37.0150 -72.3611 North 477 549 34,000  Level New York Center
05:00PM 37.1486 -72.3431 North 477 549 34,000  Level New York Center
05:01PM 37.2825 -72.3225 North 483 556 34,000  Level New York Center
05:02PM 37.4161 -72.3044 North 478 550 34,000  Level New York Center
05:03PM 37.5519 -72.2864 North 478 550 34,000  Level New York Center
05:04PM 37.6753 -72.2706 North 477 549 34,000  Level New York Center
05:05PM 37.8092 -72.2522 North 469 540 34,000 -60 Level New York Center
05:06PM 37.9408 -72.2233 10° North 469 540 33,900 -60 Descending New York Center
05:07PM 38.0725 -72.2103 North 469 540 33,900  Level New York Center
05:08PM 38.2019 -72.1944 North 469 540 34,000  Climbing New York Center
05:09PM 38.3314 -72.1758 North 464 534 34,000  Level New York Center
05:10PM 38.4653 -72.1492 North 464 534 34,000  Level New York Center
05:11PM 38.5947 -72.1358 North 464 534 34,000 -480 Level New York Center
05:12PM 38.7283 -72.1144 North 469 540 33,100 -1,140 Descending New York Center
05:13PM 38.8428 -72.1486 347° North 438 504 31,800 -2,340 Descending New York Center
05:14PM 38.9206 -72.2675 310° West 398 458 28,500 -2,400 Descending New York Center
05:15PM 39.0022 -72.3869 311° West 420 483 27,100 -1,200 Descending New York Center
05:16PM 39.0842 -72.5011 313° West 425 489 26,100 -1,020 Descending New York Center
05:17PM 39.1636 -72.6208 311° West 432 497 25,100 -1,680 Descending New York Center
05:18PM 39.2389 -72.7275 312° West 426 490 22,800 -2,400 Descending New York Center
05:19PM 39.3161 -72.8397 312° West 418 481 20,300 -2,460 Descending New York Center
05:20PM 39.3872 -72.9411 312° West 397 457 17,900 -2,280 Descending New York Center
05:21PM 39.4561 -73.0428 311° West 386 444 15,800 -1,920 Descending New York Center
05:22PM 39.5211 -73.1311 314° West 361 415 14,100 -2,220 Descending New York Center
05:23PM 39.5839 -73.2275 310° West 353 406 11,400 -2,460 Descending New York Center
05:24PM 39.6486 -73.3158 314° West 345 397 9,200 -1,200 Descending New York Center
05:25PM 39.7050 -73.4017 311° West 330 380 9,000 -180 Descending New York Center
05:26PM 39.7594 -73.4819 311° West 288 331 8,900 -60 Descending New York Center
05:27PM 39.8036 -73.5539 309° West 267 307 8,900  Level New York Center
05:28PM 39.8542 -73.6236 313° West 262 302 8,900  Level New York Center
05:29PM 39.9025 -73.6933 312° West 262 302 8,900  Level New York Center
05:30PM 39.9506 -73.7656 311° West 262 302 8,900  Level New York Center
05:31PM 40.0011 -73.8247 318° Northwest 262 302 9,000 -300 Climbing New York Center
05:32PM 40.0825 -73.8203 North 253 291 8,300 -1,020 Descending New York Center
05:33PM 40.1333 -73.8000 17° North 278 320 7,300 -780 Descending New York TRACON
05:34PM 40.2000 -73.7667 21° North 271 312 7,000 -180 Descending New York TRACON
05:35PM 40.2667 -73.7167 30° Northeast 277 319 7,000  Level New York TRACON
05:36PM 40.3333 -73.6667 30° Northeast 277 319 7,000  Level New York TRACON
05:37PM 40.4000 -73.6000 37° Northeast 278 320 7,000  Level New York TRACON
05:38PM 40.4667 -73.5500 30° Northeast 275 316 7,000 -120 Level New York TRACON
05:39PM 40.5333 -73.5167 21° North 274 315 6,800 -1,320 Descending New York TRACON
05:40PM 40.6000 -73.4833 21° North 252 290 4,400 -1,380 Descending New York TRACON
05:41PM 40.6667 -73.4500 21° North 244 281 4,000 -300 Descending New York TRACON
05:42PM 40.7167 -73.4667 346° North 221 254 3,900 -60 Descending New York TRACON
05:43PM 40.7667 -73.5000 333° Northwest 199 229 3,900 -600 Level New York TRACON
05:44PM 40.8000 -73.5500 311° West 183 211 2,700 -1,020 Descending New York TRACON
05:45PM 40.8000 -73.6167 270° West 184 212 2,000 -480 Descending New York TRACON
05:46PM 40.7667 -73.6667 229° Southwest 179 206 1,800 -240 Descending New York TRACON